Time;durP1;ratioP1;P1;durP2;ratioP2;P2;SDS_P1;SDS_P2;PMS_P1;PMS_P2;Temp;Humidity;BMP_temperature;BMP_pressure;BME280_temperature;BME280_humidity;BME280_pressure;Samples;Min_cycle;Max_cycle;Signal;HPM_P1;HPM_P2
2023/04/21 00:01:12;;;;;;;30.42;16.73;;;;;;;;;;5021204;28;20022;-83
2023/04/21 00:03:40;;;;;;;24.80;14.02;;;;;;;;;;5004009;28;20416;-83
2023/04/21 00:06:08;;;;;;;24.88;13.57;;;;;;;;;;5021414;28;20018;-83
2023/04/21 00:08:39;;;;;;;28.80;16.02;;;;;;;;;;5001552;28;20033;-84
2023/04/21 00:11:05;;;;;;;29.95;16.25;;;;;;;;;;5001688;28;20018;-83
2023/04/21 00:13:31;;;;;;;26.67;14.68;;;;;;;;;;5001349;28;20376;-83
2023/04/21 00:15:57;;;;;;;23.10;14.30;;;;;;;;;;5006038;28;20057;-83
2023/04/21 00:18:24;;;;;;;24.50;14.02;;;;;;;;;;5012299;28;20030;-83
2023/04/21 00:20:50;;;;;;;21.48;11.98;;;;;;;;;;5005635;28;20072;-83
2023/04/21 00:23:16;;;;;;;26.05;15.85;;;;;;;;;;5020992;28;20470;-83
2023/04/21 00:25:42;;;;;;;25.63;15.45;;;;;;;;;;5021293;28;20022;-83
2023/04/21 00:28:08;;;;;;;26.15;16.02;;;;;;;;;;5020686;28;20037;-84
2023/04/21 00:30:34;;;;;;;26.25;15.85;;;;;;;;;;5020325;28;20488;-84
2023/04/21 00:33:00;;;;;;;18.42;10.45;;;;;;;;;;5020050;28;20049;-84
2023/04/21 00:35:26;;;;;;;21.67;13.82;;;;;;;;;;5020809;28;20030;-84
2023/04/21 00:37:52;;;;;;;20.30;12.65;;;;;;;;;;5020627;28;20429;-84
2023/04/21 00:40:35;;;;;;;21.77;12.55;;;;;;;;;;5020352;28;20021;-84
2023/04/21 00:43:05;;;;;;;21.33;11.98;;;;;;;;;;5020655;28;20040;-84
2023/04/21 00:45:31;;;;;;;25.92;14.73;;;;;;;;;;5020481;28;20053;-84
2023/04/21 00:47:58;;;;;;;16.30;10.27;;;;;;;;;;5010178;28;20400;-83
2023/04/21 00:50:24;;;;;;;23.13;11.95;;;;;;;;;;4983400;28;20408;-83
2023/04/21 00:52:50;;;;;;;17.02;11.13;;;;;;;;;;5000771;28;20022;-83
2023/04/21 00:55:16;;;;;;;15.65;9.60;;;;;;;;;;4986377;28;20527;-84
2023/04/21 00:57:43;;;;;;;18.10;10.85;;;;;;;;;;5002150;28;20099;-84
2023/04/21 01:00:09;;;;;;;21.70;14.18;;;;;;;;;;5020144;28;20374;-83
2023/04/21 01:02:36;;;;;;;16.10;10.45;;;;;;;;;;5019206;28;20022;-84
2023/04/21 01:05:11;;;;;;;22.48;12.27;;;;;;;;;;5019755;28;20014;-83
2023/04/21 01:07:37;;;;;;;25.75;11.90;;;;;;;;;;5002457;28;20444;-84
2023/04/21 01:10:03;;;;;;;19.50;11.80;;;;;;;;;;5001786;28;20487;-83
2023/04/21 01:12:30;;;;;;;21.23;11.15;;;;;;;;;;5016857;28;20061;-84
2023/04/21 01:14:56;;;;;;;18.45;9.75;;;;;;;;;;4999989;28;20055;-83
2023/04/21 01:17:22;;;;;;;18.42;10.70;;;;;;;;;;4983162;28;20038;-84
2023/04/21 01:19:48;;;;;;;20.67;12.32;;;;;;;;;;5002154;28;20388;-83
2023/04/21 01:22:28;;;;;;;15.88;9.48;;;;;;;;;;5011789;28;20042;-83
2023/04/21 01:24:54;;;;;;;21.98;12.82;;;;;;;;;;4999913;28;20030;-83
2023/04/21 01:27:20;;;;;;;16.67;10.18;;;;;;;;;;5015588;28;20484;-83
2023/04/21 01:29:47;;;;;;;18.67;12.40;;;;;;;;;;5019548;28;20046;-83
2023/04/21 01:32:14;;;;;;;16.02;9.30;;;;;;;;;;4997545;28;20089;-83
2023/04/21 01:34:41;;;;;;;14.57;10.68;;;;;;;;;;4999745;28;20069;-84
2023/04/21 01:37:08;;;;;;;21.45;12.50;;;;;;;;;;4999988;28;20069;-83
2023/04/21 01:39:37;;;;;;;16.75;9.73;;;;;;;;;;4992434;28;20027;-84
2023/04/21 01:42:03;;;;;;;20.50;11.82;;;;;;;;;;4988688;28;20421;-83
2023/04/21 01:44:29;;;;;;;18.40;10.30;;;;;;;;;;4982708;28;20107;-83
2023/04/21 01:46:55;;;;;;;20.80;9.68;;;;;;;;;;4999612;28;20470;-83
2023/04/21 01:49:21;;;;;;;19.90;11.77;;;;;;;;;;4991476;28;20031;-83
2023/04/21 01:51:47;;;;;;;14.88;9.57;;;;;;;;;;5003158;28;20045;-83
2023/04/21 01:54:13;;;;;;;22.15;12.98;;;;;;;;;;5000387;28;20030;-83
2023/04/21 01:56:39;;;;;;;17.83;11.80;;;;;;;;;;5000764;28;20030;-84
2023/04/21 01:59:05;;;;;;;19.90;11.05;;;;;;;;;;4996539;28;20031;-83
2023/04/21 02:01:31;;;;;;;20.45;9.85;;;;;;;;;;4985658;28;20472;-84
2023/04/21 02:03:57;;;;;;;21.65;12.25;;;;;;;;;;4999383;28;20036;-83
2023/04/21 02:06:23;;;;;;;17.90;9.88;;;;;;;;;;4999120;28;20034;-84
2023/04/21 02:08:49;;;;;;;22.95;12.13;;;;;;;;;;4997118;28;20035;-84
2023/04/21 02:11:15;;;;;;;19.33;11.60;;;;;;;;;;4982489;28;20042;-84
2023/04/21 02:13:41;;;;;;;16.35;10.15;;;;;;;;;;4993727;28;20061;-84
2023/04/21 02:16:07;;;;;;;20.17;12.60;;;;;;;;;;4999636;28;20031;-83
2023/04/21 02:18:33;;;;;;;20.75;12.63;;;;;;;;;;4992862;28;20540;-83
2023/04/21 02:20:59;;;;;;;19.00;8.88;;;;;;;;;;5000512;28;20046;-84
2023/04/21 02:23:25;;;;;;;21.00;11.35;;;;;;;;;;5000246;28;20030;-83
2023/04/21 02:25:51;;;;;;;22.63;11.13;;;;;;;;;;4986250;28;20069;-83
2023/04/21 02:28:17;;;;;;;19.85;13.00;;;;;;;;;;4979147;28;20042;-84
2023/04/21 02:30:43;;;;;;;13.60;8.57;;;;;;;;;;4993576;28;20109;-84
2023/04/21 02:33:09;;;;;;;23.35;12.02;;;;;;;;;;4999155;28;20039;-83
2023/04/21 02:35:35;;;;;;;20.05;12.82;;;;;;;;;;4999664;28;20025;-83
2023/04/21 02:38:06;;;;;;;20.95;12.02;;;;;;;;;;4999684;28;20446;-84
2023/04/21 02:40:32;;;;;;;20.80;11.32;;;;;;;;;;5008010;28;20045;-83
2023/04/21 02:42:58;;;;;;;22.15;11.23;;;;;;;;;;5005537;28;20487;-83
2023/04/21 02:45:24;;;;;;;18.27;9.88;;;;;;;;;;5000849;28;20035;-83
2023/04/21 02:47:58;;;;;;;22.48;13.30;;;;;;;;;;4999327;28;20038;-83
2023/04/21 02:50:25;;;;;;;19.33;11.98;;;;;;;;;;4990591;28;20045;-83
2023/04/21 02:52:51;;;;;;;21.13;12.65;;;;;;;;;;5018126;28;20427;-83
2023/04/21 02:55:17;;;;;;;19.95;12.07;;;;;;;;;;5010345;28;20023;-83
2023/04/21 02:57:43;;;;;;;16.63;11.10;;;;;;;;;;5000103;28;20038;-83
2023/04/21 03:00:11;;;;;;;23.45;12.70;;;;;;;;;;5018838;28;20018;-83
2023/04/21 03:02:37;;;;;;;19.60;10.98;;;;;;;;;;5000261;28;20034;-83
2023/04/21 03:05:03;;;;;;;22.20;12.10;;;;;;;;;;5018202;28;20101;-83
2023/04/21 03:07:29;;;;;;;20.55;11.35;;;;;;;;;;4991351;28;20057;-83
2023/04/21 03:09:55;;;;;;;17.98;10.63;;;;;;;;;;4992499;28;20096;-83
2023/04/21 03:12:21;;;;;;;18.67;9.45;;;;;;;;;;4999924;28;20547;-83
2023/04/21 03:14:47;;;;;;;18.25;10.55;;;;;;;;;;5017191;28;20034;-83
2023/04/21 03:17:13;;;;;;;15.80;10.98;;;;;;;;;;5017704;28;20030;-83
2023/04/21 03:19:39;;;;;;;20.52;11.15;;;;;;;;;;5000452;28;20387;-83
2023/04/21 03:22:05;;;;;;;15.63;10.18;;;;;;;;;;5000187;28;20117;-83
2023/04/21 03:24:31;;;;;;;18.65;12.55;;;;;;;;;;5000841;28;20032;-84
2023/04/21 03:26:58;;;;;;;23.90;12.43;;;;;;;;;;5021223;28;20545;-83
2023/04/21 03:29:24;;;;;;;18.17;11.32;;;;;;;;;;5003388;28;20079;-84
2023/04/21 03:31:50;;;;;;;16.13;9.93;;;;;;;;;;5020838;28;20049;-83
2023/04/21 03:34:16;;;;;;;21.95;11.38;;;;;;;;;;5007585;28;20041;-83
2023/04/21 03:36:42;;;;;;;16.90;9.77;;;;;;;;;;5001870;28;20029;-84
2023/04/21 03:39:08;;;;;;;19.80;10.98;;;;;;;;;;5005094;28;20116;-83
2023/04/21 03:41:34;;;;;;;19.45;10.88;;;;;;;;;;5003484;28;20461;-83
2023/04/21 03:44:00;;;;;;;19.35;11.48;;;;;;;;;;5003852;28;20029;-84
2023/04/21 03:46:26;;;;;;;16.35;9.93;;;;;;;;;;5021780;28;20066;-84
2023/04/21 03:48:52;;;;;;;22.13;12.48;;;;;;;;;;5021053;28;20034;-83
2023/04/21 03:51:18;;;;;;;19.63;11.95;;;;;;;;;;5021163;28;20026;-83
2023/04/21 03:53:44;;;;;;;28.13;12.80;;;;;;;;;;4995105;28;20034;-83
2023/04/21 03:56:10;;;;;;;27.38;13.40;;;;;;;;;;5012032;28;20075;-83
2023/04/21 03:58:36;;;;;;;26.90;15.98;;;;;;;;;;5003183;28;20120;-83
2023/04/21 04:01:04;;;;;;;23.17;13.35;;;;;;;;;;5018879;28;20105;-83
2023/04/21 04:03:30;;;;;;;26.98;14.05;;;;;;;;;;4988700;28;20030;-83
2023/04/21 04:05:56;;;;;;;24.75;14.88;;;;;;;;;;5020729;28;20030;-83
2023/04/21 04:08:22;;;;;;;18.85;12.15;;;;;;;;;;5016697;28;20079;-83
2023/04/21 04:10:48;;;;;;;21.17;12.90;;;;;;;;;;5000763;28;20034;-83
2023/04/21 04:13:14;;;;;;;27.33;12.70;;;;;;;;;;4985438;28;20022;-83
2023/04/21 04:15:40;;;;;;;23.83;13.43;;;;;;;;;;5006355;28;20698;-83
2023/04/21 04:18:06;;;;;;;27.45;15.70;;;;;;;;;;5001303;28;20061;-83
2023/04/21 04:20:33;;;;;;;22.05;14.77;;;;;;;;;;5020140;28;20045;-83
2023/04/21 04:22:59;;;;;;;24.90;14.65;;;;;;;;;;5002576;28;20026;-83
2023/04/21 04:25:26;;;;;;;20.45;13.45;;;;;;;;;;4982536;28;20034;-83
2023/04/21 04:27:52;;;;;;;20.98;11.57;;;;;;;;;;5015927;28;20030;-83
2023/04/21 04:30:18;;;;;;;23.20;14.20;;;;;;;;;;5009961;28;20030;-83
2023/04/21 04:32:44;;;;;;;24.13;13.68;;;;;;;;;;4999670;28;20104;-83
2023/04/21 04:35:11;;;;;;;21.90;13.15;;;;;;;;;;4997649;28;20465;-83
2023/04/21 04:37:37;;;;;;;21.52;13.63;;;;;;;;;;5004152;28;20026;-83
2023/04/21 04:40:05;;;;;;;22.98;13.25;;;;;;;;;;5019554;28;20042;-83
2023/04/21 04:42:33;;;;;;;21.70;12.70;;;;;;;;;;5008749;28;20105;-83
2023/04/21 04:45:00;;;;;;;24.40;13.57;;;;;;;;;;4982550;28;20362;-83
2023/04/21 04:47:27;;;;;;;24.25;12.55;;;;;;;;;;4982700;28;20110;-83
2023/04/21 04:49:53;;;;;;;20.33;12.82;;;;;;;;;;5000400;28;20487;-83
2023/04/21 04:52:19;;;;;;;21.40;12.60;;;;;;;;;;4978931;28;20014;-83
2023/04/21 04:54:45;;;;;;;16.10;11.02;;;;;;;;;;4998737;28;20181;-83
2023/04/21 04:57:11;;;;;;;16.48;10.00;;;;;;;;;;4997345;28;20037;-83
2023/04/21 04:59:37;;;;;;;18.60;11.55;;;;;;;;;;4999683;28;20110;-83
2023/04/21 05:05:07;;;;;;;20.52;12.73;;;;;;;;;;4998021;28;20156;-83
2023/04/21 05:07:36;;;;;;;15.57;9.43;;;;;;;;;;4999862;28;20037;-83
2023/04/21 05:10:03;;;;;;;18.00;11.75;;;;;;;;;;4986420;28;20025;-83
2023/04/21 05:12:31;;;;;;;23.38;13.23;;;;;;;;;;5016509;28;20760;-83
2023/04/21 05:14:56;;;;;;;22.73;12.27;;;;;;;;;;5000487;28;20022;-82
2023/04/21 05:17:22;;;;;;;17.67;11.85;;;;;;;;;;5007045;28;20077;-83
2023/04/21 05:19:49;;;;;;;21.58;13.02;;;;;;;;;;4996090;28;20109;-83
2023/04/21 05:22:15;;;;;;;19.60;10.10;;;;;;;;;;4996348;28;20535;-83
2023/04/21 05:24:42;;;;;;;18.88;11.93;;;;;;;;;;5009656;28;20030;-83
2023/04/21 05:27:08;;;;;;;18.65;10.80;;;;;;;;;;5000600;28;20022;-83
2023/04/21 05:29:35;;;;;;;21.48;12.02;;;;;;;;;;4997996;28;20034;-83
2023/04/21 05:32:01;;;;;;;17.45;9.60;;;;;;;;;;5016317;28;20557;-83
2023/04/21 05:34:27;;;;;;;19.23;11.18;;;;;;;;;;5018269;28;20025;-83
2023/04/21 05:36:53;;;;;;;18.02;10.73;;;;;;;;;;4998366;28;20026;-83
2023/04/21 05:39:19;;;;;;;15.00;10.10;;;;;;;;;;5001139;28;20062;-83
2023/04/21 05:41:45;;;;;;;16.10;10.13;;;;;;;;;;4998513;28;20063;-83
2023/04/21 05:44:11;;;;;;;22.48;9.45;;;;;;;;;;5018530;28;20026;-83
2023/04/21 05:46:37;;;;;;;18.20;10.48;;;;;;;;;;5018185;28;20022;-83
2023/04/21 05:49:03;;;;;;;11.57;8.10;;;;;;;;;;5018209;28;20038;-83
2023/04/21 05:51:29;;;;;;;19.98;10.68;;;;;;;;;;5000841;28;20392;-83
2023/04/21 05:53:55;;;;;;;20.73;11.32;;;;;;;;;;4997026;28;20125;-83
2023/04/21 05:56:21;;;;;;;16.08;10.18;;;;;;;;;;5004702;28;20062;-83
2023/04/21 05:58:47;;;;;;;16.42;10.57;;;;;;;;;;5009304;28;20041;-83
2023/04/21 06:01:14;;;;;;;19.40;10.98;;;;;;;;;;4999260;28;20030;-84
2023/04/21 06:03:40;;;;;;;18.73;10.48;;;;;;;;;;4998791;28;20072;-84
2023/04/21 06:06:06;;;;;;;17.00;10.00;;;;;;;;;;4979031;28;20033;-83
2023/04/21 06:08:32;;;;;;;22.15;11.02;;;;;;;;;;4997864;28;20033;-83
2023/04/21 06:11:01;;;;;;;16.05;10.25;;;;;;;;;;4998673;28;20058;-82
2023/04/21 06:13:31;;;;;;;19.17;10.82;;;;;;;;;;5008065;28;20108;-80
2023/04/21 06:15:57;;;;;;;15.30;10.27;;;;;;;;;;5017182;28;20033;-80
2023/04/21 06:18:23;;;;;;;22.65;10.30;;;;;;;;;;5000138;28;20049;-81
2023/04/21 06:20:50;;;;;;;14.52;10.15;;;;;;;;;;5021753;28;20566;-80
2023/04/21 06:23:16;;;;;;;14.27;8.95;;;;;;;;;;5016201;28;20029;-80
2023/04/21 06:25:59;;;;;;;16.27;9.38;;;;;;;;;;5002170;28;20121;-80
2023/04/21 06:28:25;;;;;;;14.02;8.65;;;;;;;;;;5012219;28;20473;-81
2023/04/21 06:30:51;;;;;;;16.70;9.68;;;;;;;;;;5000786;28;20023;-81
2023/04/21 06:33:17;;;;;;;15.20;10.10;;;;;;;;;;5012976;28;20122;-81
2023/04/21 06:35:43;;;;;;;18.92;10.65;;;;;;;;;;5002519;28;20022;-81
2023/04/21 06:38:09;;;;;;;15.50;9.30;;;;;;;;;;5014230;28;20050;-81
2023/04/21 06:40:35;;;;;;;13.60;8.63;;;;;;;;;;5006914;28;20034;-81
2023/04/21 06:43:01;;;;;;;14.88;10.00;;;;;;;;;;5017067;28;20021;-81
2023/04/21 06:45:27;;;;;;;16.08;10.20;;;;;;;;;;4998923;28;20030;-81
2023/04/21 06:47:53;;;;;;;12.75;8.73;;;;;;;;;;5014638;28;20030;-80
2023/04/21 06:50:25;;;;;;;16.38;9.95;;;;;;;;;;5016917;28;20481;-81
2023/04/21 06:53:01;;;;;;;11.15;8.35;;;;;;;;;;5016586;28;20040;-80
2023/04/21 06:58:18;;;;;;;15.13;9.27;;;;;;;;;;4996981;28;20066;-80
2023/04/21 07:00:44;;;;;;;16.05;10.63;;;;;;;;;;5015676;28;20085;-81
2023/04/21 07:03:10;;;;;;;14.18;8.43;;;;;;;;;;5011062;28;20022;-82
2023/04/21 07:05:37;;;;;;;13.38;9.75;;;;;;;;;;5008444;28;20022;-82
2023/04/21 07:08:03;;;;;;;14.32;8.80;;;;;;;;;;5019965;28;20034;-82
2023/04/21 07:10:41;;;;;;;11.57;8.70;;;;;;;;;;5021165;28;20022;-82
2023/04/21 07:13:07;;;;;;;13.75;8.65;;;;;;;;;;5017751;28;20646;-82
2023/04/21 07:15:33;;;;;;;12.35;8.73;;;;;;;;;;5001042;28;20037;-83
2023/04/21 07:17:59;;;;;;;10.93;8.85;;;;;;;;;;5005968;28;20030;-85
2023/04/21 07:20:25;;;;;;;12.98;8.73;;;;;;;;;;5017083;28;20022;-84
2023/04/21 07:22:51;;;;;;;15.73;8.95;;;;;;;;;;5007996;28;20496;-83
2023/04/21 07:25:17;;;;;;;12.70;8.95;;;;;;;;;;5011012;28;20029;-83
2023/04/21 07:27:44;;;;;;;12.55;8.63;;;;;;;;;;5019909;28;20033;-83
2023/04/21 07:30:10;;;;;;;14.60;9.25;;;;;;;;;;5001901;28;20021;-82
2023/04/21 07:32:37;;;;;;;16.23;9.98;;;;;;;;;;4990751;28;20054;-80
2023/04/21 07:35:03;;;;;;;14.60;9.45;;;;;;;;;;4982470;28;20061;-81
2023/04/21 07:37:39;;;;;;;15.27;10.10;;;;;;;;;;4981810;28;20078;-81
2023/04/21 07:40:06;;;;;;;16.63;9.77;;;;;;;;;;4999994;28;20026;-81
2023/04/21 07:42:32;;;;;;;18.65;10.57;;;;;;;;;;4996695;28;20033;-81
2023/04/21 07:45:00;;;;;;;15.93;9.63;;;;;;;;;;4999504;28;20030;-82
2023/04/21 07:47:26;;;;;;;12.30;8.77;;;;;;;;;;4992570;28;20030;-79
2023/04/21 07:49:52;;;;;;;19.20;10.70;;;;;;;;;;5000231;28;20157;-79
2023/04/21 07:52:18;;;;;;;14.55;9.15;;;;;;;;;;5001649;28;20046;-79
2023/04/21 07:54:44;;;;;;;16.25;10.25;;;;;;;;;;5002020;28;20420;-80
2023/04/21 07:57:10;;;;;;;17.80;10.73;;;;;;;;;;5017854;28;20002;-80
2023/04/21 07:59:36;;;;;;;13.38;9.40;;;;;;;;;;5012154;28;20034;-80
2023/04/21 08:02:02;;;;;;;17.05;10.10;;;;;;;;;;4995865;28;20041;-79
2023/04/21 08:04:28;;;;;;;13.73;9.48;;;;;;;;;;5001138;28;20485;-79
2023/04/21 08:06:54;;;;;;;15.88;8.82;;;;;;;;;;5002605;28;20039;-81
2023/04/21 08:09:20;;;;;;;16.02;10.02;;;;;;;;;;4992504;28;20041;-83
2023/04/21 08:11:46;;;;;;;16.42;9.52;;;;;;;;;;4997435;28;20058;-82
2023/04/21 08:14:12;;;;;;;14.07;9.40;;;;;;;;;;4999171;28;20029;-82
2023/04/21 08:16:40;;;;;;;12.35;8.75;;;;;;;;;;4978700;28;20573;-84
2023/04/21 08:19:08;;;;;;;12.38;8.77;;;;;;;;;;4992366;28;20026;-82
2023/04/21 08:21:35;;;;;;;16.05;9.15;;;;;;;;;;4997625;28;20058;-82
2023/04/21 08:24:01;;;;;;;14.45;10.02;;;;;;;;;;4985740;28;20029;-83
2023/04/21 08:26:28;;;;;;;14.20;9.82;;;;;;;;;;4982014;28;20109;-80
2023/04/21 08:28:55;;;;;;;14.43;9.35;;;;;;;;;;5000394;28;20065;-80
2023/04/21 08:31:21;;;;;;;13.02;9.45;;;;;;;;;;4993648;28;20029;-80
2023/04/21 08:33:47;;;;;;;18.08;10.18;;;;;;;;;;5014397;28;20046;-80
2023/04/21 08:36:13;;;;;;;19.92;9.50;;;;;;;;;;5013315;28;20033;-77
2023/04/21 08:38:43;;;;;;;14.40;9.65;;;;;;;;;;5011880;28;20029;-82
2023/04/21 08:41:09;;;;;;;;;;;;;;;;;;5003652;28;20025;-83
2023/04/21 08:43:35;;;;;;;13.57;8.50;;;;;;;;;;5016894;28;20318;-82
2023/04/21 08:46:06;;;;;;;18.63;9.95;;;;;;;;;;5004829;28;20037;-82
2023/04/21 08:48:33;;;;;;;15.05;9.23;;;;;;;;;;5005051;28;20110;-82
2023/04/21 08:50:59;;;;;;;16.42;9.23;;;;;;;;;;5020150;28;20052;-81
2023/04/21 08:53:25;;;;;;;12.27;8.52;;;;;;;;;;5012992;28;20419;-81
2023/04/21 08:55:54;;;;;;;15.63;9.73;;;;;;;;;;5007905;28;20038;-80
2023/04/21 08:58:23;;;;;;;13.00;9.52;;;;;;;;;;5000364;28;20081;-80
2023/04/21 09:01:07;;;;;;;16.20;10.52;;;;;;;;;;5000327;28;20033;-80
2023/04/21 09:03:33;;;;;;;14.15;9.68;;;;;;;;;;5007166;28;20033;-80
2023/04/21 09:05:59;;;;;;;16.98;10.13;;;;;;;;;;5002154;28;20096;-81
2023/04/21 09:08:27;;;;;;;16.80;10.48;;;;;;;;;;4994317;28;20045;-80
2023/04/21 09:10:53;;;;;;;13.93;9.32;;;;;;;;;;5018932;28;20444;-81
2023/04/21 09:13:19;;;;;;;13.57;9.65;;;;;;;;;;5011760;28;20488;-81
2023/04/21 09:15:46;;;;;;;13.55;8.90;;;;;;;;;;5015322;28;20088;-81
2023/04/21 09:18:12;;;;;;;17.77;10.27;;;;;;;;;;4997941;28;20076;-81
2023/04/21 09:20:39;;;;;;;14.00;9.02;;;;;;;;;;4995315;28;20116;-81
2023/04/21 09:23:05;;;;;;;14.40;10.13;;;;;;;;;;5016858;28;20045;-81
2023/04/21 09:25:32;;;;;;;16.13;10.32;;;;;;;;;;5004978;28;20022;-81
2023/04/21 09:27:59;;;;;;;15.05;10.93;;;;;;;;;;5017818;28;20053;-81
2023/04/21 09:30:25;;;;;;;17.75;10.63;;;;;;;;;;5001479;28;20668;-83
2023/04/21 09:32:55;;;;;;;12.25;9.68;;;;;;;;;;4999312;28;20125;-82
2023/04/21 09:35:21;;;;;;;13.65;9.45;;;;;;;;;;5017379;28;20759;-82
2023/04/21 09:37:47;;;;;;;17.08;10.95;;;;;;;;;;5015843;28;20022;-79
2023/04/21 09:40:14;;;;;;;15.32;10.07;;;;;;;;;;5007522;28;20024;-79
2023/04/21 09:42:40;;;;;;;13.10;9.50;;;;;;;;;;5002628;28;20023;-81
2023/04/21 09:45:17;;;;;;;14.90;9.70;;;;;;;;;;5009801;28;20026;-79
2023/04/21 09:47:43;;;;;;;14.10;10.18;;;;;;;;;;5015229;28;20045;-80
2023/04/21 09:50:10;;;;;;;15.45;10.70;;;;;;;;;;4997128;28;20480;-80
2023/04/21 09:52:38;;;;;;;14.48;9.57;;;;;;;;;;5003369;28;20033;-80
2023/04/21 09:55:07;;;;;;;15.07;10.82;;;;;;;;;;5016504;28;20057;-80
2023/04/21 09:57:36;;;;;;;15.30;10.73;;;;;;;;;;5016054;28;20156;-80
2023/04/21 10:00:04;;;;;;;20.75;11.25;;;;;;;;;;5008119;28;20156;-80
2023/04/21 10:02:30;;;;;;;12.48;9.40;;;;;;;;;;4995937;28;20109;-81
2023/04/21 10:04:57;;;;;;;17.23;10.52;;;;;;;;;;5004532;28;20045;-80
2023/04/21 10:07:23;;;;;;;13.80;9.82;;;;;;;;;;5009369;28;20029;-80
2023/04/21 10:09:53;;;;;;;14.30;9.07;;;;;;;;;;4999841;28;20046;-80
2023/04/21 10:12:19;;;;;;;13.43;9.68;;;;;;;;;;5012549;28;20034;-80
2023/04/21 10:15:26;;;;;;;14.18;10.85;;;;;;;;;;5071669;28;20781;-78
2023/04/21 10:17:52;;;;;;;13.68;8.85;;;;;;;;;;5030677;28;20403;-80
2023/04/21 10:20:18;;;;;;;13.57;9.75;;;;;;;;;;5039942;28;20100;-80
2023/04/21 10:22:44;;;;;;;15.45;9.00;;;;;;;;;;5040900;28;20029;-81
2023/04/21 10:25:13;;;;;;;14.27;10.70;;;;;;;;;;5032936;28;20434;-81
2023/04/21 10:27:40;;;;;;;15.15;9.70;;;;;;;;;;5029593;28;20490;-80
2023/04/21 10:30:25;;;;;;;12.55;9.02;;;;;;;;;;5038531;28;20048;-80
2023/04/21 10:33:04;;;;;;;15.52;10.65;;;;;;;;;;5031081;28;20032;-81
2023/04/21 10:35:48;;;;;;;14.60;10.48;;;;;;;;;;5036839;28;20108;-80
2023/04/21 10:38:32;;;;;;;15.35;10.32;;;;;;;;;;5044195;28;20032;-81
2023/04/21 10:41:17;;;;;;;15.75;8.98;;;;;;;;;;5037328;28;20034;-77
2023/04/21 10:43:44;;;;;;;15.02;10.15;;;;;;;;;;5039979;28;20104;-78
2023/04/21 10:46:28;;;;;;;12.98;9.80;;;;;;;;;;5046178;28;20419;-77
2023/04/21 10:48:54;;;;;;;14.07;10.55;;;;;;;;;;5035526;28;20038;-77
2023/04/21 10:51:22;;;;;;;16.20;11.10;;;;;;;;;;5035281;28;20076;-78
2023/04/21 10:53:48;;;;;;;14.90;10.50;;;;;;;;;;5036801;28;20438;-78
2023/04/21 10:56:14;;;;;;;13.82;9.95;;;;;;;;;;5038211;28;20507;-78
2023/04/21 10:58:40;;;;;;;12.35;9.45;;;;;;;;;;5029860;28;20080;-78
2023/04/21 11:01:06;;;;;;;18.00;10.70;;;;;;;;;;5031556;28;20442;-78
2023/04/21 11:03:35;;;;;;;15.30;11.43;;;;;;;;;;5040774;28;20386;-78
2023/04/21 11:06:13;;;;;;;11.25;9.98;;;;;;;;;;5039501;28;20029;-78
2023/04/21 11:08:54;;;;;;;15.32;11.23;;;;;;;;;;5037465;28;20021;-79
2023/04/21 11:11:25;;;;;;;14.80;10.35;;;;;;;;;;5041544;28;20087;-79
2023/04/21 11:13:52;;;;;;;14.73;10.68;;;;;;;;;;5043606;28;20399;-79
2023/04/21 11:16:19;;;;;;;17.15;11.05;;;;;;;;;;5041307;28;20076;-78
2023/04/21 11:18:45;;;;;;;14.48;9.70;;;;;;;;;;5045488;28;20526;-78
2023/04/21 11:21:12;;;;;;;13.88;9.65;;;;;;;;;;5035044;28;20128;-77
2023/04/21 11:23:47;;;;;;;14.75;10.90;;;;;;;;;;5038200;28;20021;-79
2023/04/21 11:26:13;;;;;;;16.73;9.93;;;;;;;;;;5028738;28;20044;-79
2023/04/21 11:28:42;;;;;;;16.13;10.85;;;;;;;;;;5039256;28;20400;-78
2023/04/21 11:31:08;;;;;;;13.43;9.57;;;;;;;;;;5022226;28;20086;-78
2023/04/21 11:33:38;;;;;;;13.40;10.13;;;;;;;;;;5028285;28;20045;-78
2023/04/21 11:36:07;;;;;;;14.40;11.32;;;;;;;;;;5019502;28;20105;-78
2023/04/21 11:38:36;;;;;;;15.40;11.77;;;;;;;;;;5018865;28;20164;-79
2023/04/21 11:41:02;;;;;;;15.95;11.38;;;;;;;;;;5020172;28;20259;-79
2023/04/21 11:43:28;;;;;;;14.82;11.07;;;;;;;;;;5015233;28;20038;-78
2023/04/21 11:45:54;;;;;;;13.77;10.13;;;;;;;;;;5023780;28;20048;-78
2023/04/21 11:48:20;;;;;;;14.55;9.38;;;;;;;;;;5038099;28;20025;-77
2023/04/21 11:50:54;;;;;;;15.27;10.95;;;;;;;;;;5021308;28;20114;-77
2023/04/21 11:53:20;;;;;;;17.23;10.77;;;;;;;;;;5014064;28;20117;-80
2023/04/21 11:55:46;;;;;;;19.33;12.63;;;;;;;;;;5015406;28;20061;-80
2023/04/21 11:58:15;;;;;;;12.98;10.07;;;;;;;;;;5024281;28;20020;-78
2023/04/21 12:00:44;;;;;;;14.93;10.13;;;;;;;;;;5053627;28;20526;-78
2023/04/21 12:03:10;;;;;;;15.40;10.57;;;;;;;;;;5031670;28;20037;-78
2023/04/21 12:05:36;;;;;;;17.17;11.05;;;;;;;;;;5021271;28;20040;-78
2023/04/21 12:08:06;;;;;;;14.20;10.52;;;;;;;;;;5032371;28;20476;-78
2023/04/21 12:10:32;;;;;;;17.27;11.38;;;;;;;;;;5022948;28;20443;-76
2023/04/21 12:12:58;;;;;;;17.30;11.05;;;;;;;;;;5028011;28;20415;-76
2023/04/21 12:15:24;;;;;;;18.15;11.13;;;;;;;;;;5015437;28;20461;-79
2023/04/21 12:17:51;;;;;;;17.20;11.55;;;;;;;;;;5028955;28;20036;-79
2023/04/21 12:20:18;;;;;;;14.93;11.10;;;;;;;;;;5024957;28;20028;-79
2023/04/21 12:22:45;;;;;;;16.17;10.80;;;;;;;;;;5023245;28;20037;-79
2023/04/21 12:25:11;;;;;;;17.10;11.43;;;;;;;;;;5027779;28;20069;-79
2023/04/21 12:27:37;;;;;;;15.52;11.02;;;;;;;;;;5023804;28;20030;-79
2023/04/21 12:30:03;;;;;;;18.08;10.90;;;;;;;;;;5020887;28;20022;-79
2023/04/21 12:32:29;;;;;;;16.10;10.65;;;;;;;;;;5020534;28;20218;-79
2023/04/21 12:34:55;;;;;;;19.90;11.18;;;;;;;;;;5027799;28;20041;-79
2023/04/21 12:37:21;;;;;;;12.90;10.90;;;;;;;;;;5022234;28;20026;-79
2023/04/21 12:39:47;;;;;;;19.60;11.10;;;;;;;;;;5023572;28;20108;-79
2023/04/21 12:42:13;;;;;;;17.38;10.68;;;;;;;;;;5030895;28;20044;-80
2023/04/21 12:44:39;;;;;;;18.55;11.32;;;;;;;;;;5029691;28;20642;-79
2023/04/21 12:47:05;;;;;;;14.77;11.32;;;;;;;;;;5025778;28;20075;-79
2023/04/21 12:49:31;;;;;;;17.85;11.20;;;;;;;;;;5024599;28;20051;-79
2023/04/21 12:51:57;;;;;;;15.73;11.23;;;;;;;;;;5015657;28;20093;-79
2023/04/21 12:54:23;;;;;;;16.27;11.27;;;;;;;;;;5027504;28;20038;-79
2023/04/21 12:56:49;;;;;;;14.38;10.75;;;;;;;;;;5034124;28;20059;-79
2023/04/21 12:59:15;;;;;;;15.43;11.27;;;;;;;;;;5036842;28;20025;-79
2023/04/21 13:01:42;;;;;;;17.70;11.85;;;;;;;;;;5024004;28;20036;-79
2023/04/21 13:04:08;;;;;;;15.75;10.32;;;;;;;;;;5032568;28;20052;-79
2023/04/21 13:06:34;;;;;;;13.82;10.70;;;;;;;;;;5027186;28;20455;-79
2023/04/21 13:09:00;;;;;;;13.60;10.98;;;;;;;;;;5026551;28;20026;-78
2023/04/21 13:11:26;;;;;;;12.85;9.52;;;;;;;;;;5023974;28;20037;-76
2023/04/21 13:13:52;;;;;;;15.30;10.60;;;;;;;;;;5021507;28;20195;-76
2023/04/21 13:16:18;;;;;;;13.32;10.43;;;;;;;;;;5014909;28;20104;-76
2023/04/21 13:18:46;;;;;;;18.08;11.35;;;;;;;;;;5020102;28;20038;-76
2023/04/21 13:21:12;;;;;;;17.30;12.00;;;;;;;;;;5025437;28;20067;-76
2023/04/21 13:23:38;;;;;;;21.13;11.85;;;;;;;;;;5018480;28;20024;-76
2023/04/21 13:26:04;;;;;;;18.13;11.93;;;;;;;;;;5032183;28;20102;-76
2023/04/21 13:28:30;;;;;;;17.77;12.48;;;;;;;;;;5020502;28;20018;-76
2023/04/21 13:30:56;;;;;;;16.25;12.73;;;;;;;;;;5018961;28;20033;-76
2023/04/21 13:33:22;;;;;;;19.02;12.57;;;;;;;;;;5023435;28;20049;-76
2023/04/21 13:35:48;;;;;;;17.85;12.48;;;;;;;;;;5015038;28;20030;-72
2023/04/21 13:38:14;;;;;;;16.73;12.32;;;;;;;;;;5018129;28;20087;-72
2023/04/21 13:40:41;;;;;;;16.67;12.75;;;;;;;;;;5011525;28;20084;-72
2023/04/21 13:43:07;;;;;;;18.73;13.35;;;;;;;;;;5013943;28;20026;-73
2023/04/21 13:45:33;;;;;;;17.23;12.55;;;;;;;;;;5039422;28;20349;-72
2023/04/21 13:47:59;;;;;;;17.70;12.82;;;;;;;;;;5025006;28;20068;-73
2023/04/21 13:50:25;;;;;;;17.75;12.55;;;;;;;;;;5032373;28;20017;-73
2023/04/21 13:52:51;;;;;;;17.13;13.27;;;;;;;;;;5027759;28;20037;-72
2023/04/21 13:55:17;;;;;;;21.73;14.30;;;;;;;;;;5016432;28;20033;-73
2023/04/21 13:57:44;;;;;;;20.70;13.80;;;;;;;;;;5012954;28;20464;-72
2023/04/21 14:00:10;;;;;;;22.70;14.00;;;;;;;;;;5020638;28;20030;-72
2023/04/21 14:02:37;;;;;;;19.85;14.43;;;;;;;;;;5029111;28;20079;-72
2023/04/21 14:05:03;;;;;;;21.90;14.63;;;;;;;;;;5032370;28;20040;-72
2023/04/21 14:07:29;;;;;;;20.05;14.50;;;;;;;;;;5018660;28;20033;-72
2023/04/21 14:09:56;;;;;;;20.02;15.63;;;;;;;;;;5024238;28;20022;-72
2023/04/21 14:12:24;;;;;;;17.38;14.23;;;;;;;;;;5012904;28;20559;-72
2023/04/21 14:14:50;;;;;;;17.23;14.40;;;;;;;;;;5030662;28;20077;-72
2023/04/21 14:17:16;;;;;;;20.33;15.45;;;;;;;;;;5019238;28;20057;-73
2023/04/21 14:19:42;;;;;;;20.67;15.27;;;;;;;;;;5018153;28;20068;-73
2023/04/21 14:22:08;;;;;;;19.80;15.20;;;;;;;;;;5018519;28;20017;-73
2023/04/21 14:24:34;;;;;;;24.52;15.60;;;;;;;;;;5019915;28;20578;-74
2023/04/21 14:27:00;;;;;;;22.00;15.93;;;;;;;;;;5025528;28;20026;-73